Time;durP1;ratioP1;P1;durP2;ratioP2;P2;SDS_P1;SDS_P2;PMS_P1;PMS_P2;Temp;Humidity;BMP_temperature;BMP_pressure;BME280_temperature;BME280_humidity;BME280_pressure;Samples;Min_cycle;Max_cycle;Signal;HPM_P1;HPM_P2
2022/11/04 00:01:19;;;;;;;8.23;6.60;;;;;;;;;;4977253;28;20057;-71
2022/11/04 00:03:45;;;;;;;9.73;6.17;;;;;;;;;;5001650;28;20074;-71
2022/11/04 00:06:12;;;;;;;11.20;6.27;;;;;;;;;;4986364;28;20048;-71
2022/11/04 00:08:38;;;;;;;10.87;6.53;;;;;;;;;;4971952;28;20037;-71
2022/11/04 00:13:48;;;;;;;8.40;6.13;;;;;;;;;;4997657;28;20087;-71
2022/11/04 00:18:58;;;;;;;13.97;6.07;;;;;;;;;;4997803;28;20064;-72
2022/11/04 00:29:38;;;;;;;9.57;6.20;;;;;;;;;;4997428;28;20367;-71
2022/11/04 00:34:47;;;;;;;12.17;6.00;;;;;;;;;;4984289;28;20119;-71
2022/11/04 00:37:14;;;;;;;18.00;6.40;;;;;;;;;;4981928;28;20056;-72
2022/11/04 00:39:40;;;;;;;9.60;6.13;;;;;;;;;;4981600;28;20038;-73
2022/11/04 00:42:05;;;;;;;9.40;5.67;;;;;;;;;;4981359;28;20128;-73
2022/11/04 00:44:31;;;;;;;11.80;6.40;;;;;;;;;;4983317;28;20037;-72
2022/11/04 00:46:57;;;;;;;8.40;5.37;;;;;;;;;;4984880;28;20033;-71
2022/11/04 00:49:23;;;;;;;11.53;6.17;;;;;;;;;;5001182;28;20029;-71
2022/11/04 00:51:49;;;;;;;8.27;6.00;;;;;;;;;;5001291;28;20588;-72
2022/11/04 00:54:15;;;;;;;8.27;5.60;;;;;;;;;;4985246;28;20033;-71
2022/11/04 00:56:40;;;;;;;9.43;5.70;;;;;;;;;;5000967;28;20037;-71
2022/11/04 00:59:06;;;;;;;9.80;5.80;;;;;;;;;;4984726;28;20349;-70
2022/11/04 01:01:32;;;;;;;8.73;6.10;;;;;;;;;;4984728;28;20494;-71
2022/11/04 01:03:57;;;;;;;9.13;6.13;;;;;;;;;;4984768;28;20045;-70
2022/11/04 01:06:25;;;;;;;11.00;5.83;;;;;;;;;;4984885;28;20045;-70
2022/11/04 01:08:55;;;;;;;6.63;5.60;;;;;;;;;;5000625;28;20041;-70
2022/11/04 01:11:20;;;;;;;8.57;5.87;;;;;;;;;;5017391;28;20045;-70
2022/11/04 01:13:49;;;;;;;8.37;5.43;;;;;;;;;;5003782;28;20376;-70
2022/11/04 01:16:14;;;;;;;9.80;5.67;;;;;;;;;;5003836;28;20037;-70
2022/11/04 01:18:40;;;;;;;7.30;5.50;;;;;;;;;;5003944;28;20045;-70
2022/11/04 01:21:07;;;;;;;7.93;5.97;;;;;;;;;;5003928;28;20122;-70
2022/11/04 01:23:33;;;;;;;8.00;5.87;;;;;;;;;;5020124;28;20037;-70
2022/11/04 01:25:59;;;;;;;10.70;5.67;;;;;;;;;;5003752;28;20033;-71
2022/11/04 01:28:25;;;;;;;8.43;5.13;;;;;;;;;;5003896;28;20147;-70
2022/11/04 01:30:50;;;;;;;8.93;5.73;;;;;;;;;;5004108;28;20534;-70
2022/11/04 01:33:16;;;;;;;8.23;5.77;;;;;;;;;;5019816;28;20533;-71
2022/11/04 01:35:41;;;;;;;11.33;5.93;;;;;;;;;;5003568;28;20156;-70
2022/11/04 01:38:07;;;;;;;10.97;5.70;;;;;;;;;;5003495;28;20059;-71
2022/11/04 01:40:36;;;;;;;9.13;5.80;;;;;;;;;;5003573;28;20124;-71
2022/11/04 01:43:02;;;;;;;8.97;5.50;;;;;;;;;;5003499;28;20356;-71
2022/11/04 01:45:27;;;;;;;8.70;5.87;;;;;;;;;;5019750;28;20098;-71
2022/11/04 01:47:53;;;;;;;9.53;5.70;;;;;;;;;;5019423;28;20462;-70
2022/11/04 01:50:25;;;;;;;9.60;5.57;;;;;;;;;;5003574;28;20159;-70
2022/11/04 01:52:57;;;;;;;8.40;5.97;;;;;;;;;;5019824;28;20029;-70
2022/11/04 01:55:24;;;;;;;9.53;5.50;;;;;;;;;;5018831;28;20110;-70
2022/11/04 01:57:51;;;;;;;7.90;5.40;;;;;;;;;;5003596;28;20418;-70
2022/11/04 02:00:18;;;;;;;8.63;5.87;;;;;;;;;;5019281;28;20076;-74
2022/11/04 02:02:53;;;;;;;8.67;5.63;;;;;;;;;;5003146;28;20068;-73
2022/11/04 02:05:19;;;;;;;12.17;5.73;;;;;;;;;;5036174;28;20033;-73
2022/11/04 02:07:48;;;;;;;10.70;5.90;;;;;;;;;;5019457;28;20075;-72
2022/11/04 02:10:14;;;;;;;8.80;6.43;;;;;;;;;;5002920;28;20055;-72
2022/11/04 02:12:58;;;;;;;10.47;6.47;;;;;;;;;;5002880;28;20032;-71
2022/11/04 02:16:02;;;;;;;9.33;6.43;;;;;;;;;;5025207;28;20037;-70
2022/11/04 02:18:31;;;;;;;10.90;6.73;;;;;;;;;;5002921;28;20135;-71
2022/11/04 02:21:20;;;;;;;9.63;6.17;;;;;;;;;;5002800;28;20036;-71
2022/11/04 02:24:04;;;;;;;12.50;6.90;;;;;;;;;;4984371;28;20122;-72
2022/11/04 02:26:31;;;;;;;13.47;7.20;;;;;;;;;;5019269;28;20486;-71
2022/11/04 02:29:06;;;;;;;14.73;7.40;;;;;;;;;;5002403;28;20049;-71
2022/11/04 02:31:39;;;;;;;10.47;7.03;;;;;;;;;;5002248;28;20060;-71
2022/11/04 02:34:07;;;;;;;13.83;7.43;;;;;;;;;;5035159;28;20107;-72
2022/11/04 02:36:45;;;;;;;9.93;6.80;;;;;;;;;;5002444;28;20395;-71
2022/11/04 02:39:46;;;;;;;14.07;7.60;;;;;;;;;;5002272;28;20033;-72
2022/11/04 02:42:16;;;;;;;11.30;7.25;;;;;;;;;;4958887;28;20050;-71
2022/11/04 02:44:49;;;;;;;12.15;7.57;;;;;;;;;;5011582;28;20183;-71
2022/11/04 02:47:15;;;;;;;12.37;7.67;;;;;;;;;;5002288;28;20033;-72
2022/11/04 02:50:04;;;;;;;16.10;8.07;;;;;;;;;;5001567;28;20040;-71
2022/11/04 02:52:33;;;;;;;16.53;7.50;;;;;;;;;;5018498;28;20498;-71
2022/11/04 02:55:01;;;;;;;13.30;7.30;;;;;;;;;;5018649;28;20037;-71
2022/11/04 02:57:31;;;;;;;12.80;7.67;;;;;;;;;;5002526;28;20037;-71
2022/11/04 02:59:57;;;;;;;12.73;7.50;;;;;;;;;;5034920;28;20041;-71
2022/11/04 03:02:26;;;;;;;13.20;7.77;;;;;;;;;;5002050;28;20460;-71
2022/11/04 03:04:54;;;;;;;11.77;8.17;;;;;;;;;;5018510;28;20079;-71
2022/11/04 03:07:24;;;;;;;13.68;8.75;;;;;;;;;;5019005;28;20413;-70
2022/11/04 03:09:52;;;;;;;12.70;7.70;;;;;;;;;;5002146;28;20040;-70
2022/11/04 03:12:22;;;;;;;16.27;8.67;;;;;;;;;;5018434;28;20033;-70
2022/11/04 03:14:50;;;;;;;13.57;8.87;;;;;;;;;;5018059;28;20029;-71
2022/11/04 03:17:22;;;;;;;16.73;9.40;;;;;;;;;;5001937;28;20064;-70
2022/11/04 03:19:57;;;;;;;16.47;9.10;;;;;;;;;;5001795;28;20236;-70
2022/11/04 03:22:25;;;;;;;14.40;8.87;;;;;;;;;;5035190;28;20032;-70
2022/11/04 03:24:51;;;;;;;12.20;7.70;;;;;;;;;;5001444;28;20041;-70
2022/11/04 03:27:19;;;;;;;16.63;8.40;;;;;;;;;;5001464;28;20040;-70
2022/11/04 03:29:53;;;;;;;14.80;8.40;;;;;;;;;;5001372;28;20178;-70
2022/11/04 03:32:21;;;;;;;13.57;8.67;;;;;;;;;;5034251;28;20839;-70
2022/11/04 03:34:47;;;;;;;15.53;9.03;;;;;;;;;;4990755;28;20139;-70
2022/11/04 03:37:13;;;;;;;21.80;9.47;;;;;;;;;;4982018;28;20060;-70
2022/11/04 03:39:39;;;;;;;14.03;8.83;;;;;;;;;;4981801;28;20138;-70
2022/11/04 03:42:18;;;;;;;14.73;8.93;;;;;;;;;;4981812;28;20044;-70
2022/11/04 03:44:57;;;;;;;14.57;7.27;;;;;;;;;;4981765;28;20483;-70
2022/11/04 03:47:25;;;;;;;7.87;5.47;;;;;;;;;;4981966;28;20068;-72
2022/11/04 03:50:01;;;;;;;11.53;5.83;;;;;;;;;;4981890;28;20144;-71
2022/11/04 03:52:27;;;;;;;12.50;5.37;;;;;;;;;;4998473;28;20088;-71
2022/11/04 03:54:52;;;;;;;8.77;5.57;;;;;;;;;;4981688;28;20432;-72
2022/11/04 03:57:21;;;;;;;8.33;5.43;;;;;;;;;;4981644;28;20040;-72
2022/11/04 04:00:16;;;;;;;7.87;5.17;;;;;;;;;;4981731;28;20033;-71
2022/11/04 04:02:42;;;;;;;6.97;5.37;;;;;;;;;;4973070;28;20125;-71
2022/11/04 04:05:10;;;;;;;5.90;4.90;;;;;;;;;;4981627;28;20463;-71
2022/11/04 04:07:38;;;;;;;11.60;5.17;;;;;;;;;;4981824;28;20045;-72
2022/11/04 04:10:37;;;;;;;9.23;6.60;;;;;;;;;;5031672;28;20042;-71
2022/11/04 04:12:59;;;;;;;13.17;7.50;;;;;;;;;;4998134;28;20040;-71
2022/11/04 04:15:30;;;;;;;12.63;7.13;;;;;;;;;;4981269;28;20392;-71
2022/11/04 04:18:06;;;;;;;10.07;6.47;;;;;;;;;;4981799;28;20045;-71
2022/11/04 04:20:34;;;;;;;11.83;6.23;;;;;;;;;;4985064;28;20451;-70
2022/11/04 04:28:44;;;;;;;11.87;6.53;;;;;;;;;;5001252;28;20037;-72
2022/11/04 04:31:11;;;;;;;10.70;7.33;;;;;;;;;;4985111;28;20403;-72
2022/11/04 04:33:38;;;;;;;14.20;8.33;;;;;;;;;;5002868;28;20037;-71
2022/11/04 04:36:05;;;;;;;12.00;8.40;;;;;;;;;;5004626;28;20037;-71
2022/11/04 04:46:51;;;;;;;12.27;7.40;;;;;;;;;;5020547;28;20132;-71
2022/11/04 04:49:17;;;;;;;19.93;7.80;;;;;;;;;;5021003;28;20072;-71
2022/11/04 04:51:44;;;;;;;11.50;7.10;;;;;;;;;;5020756;28;20072;-70
2022/11/04 04:54:10;;;;;;;11.87;7.37;;;;;;;;;;5020598;28;20566;-71
2022/11/04 04:56:36;;;;;;;10.97;7.27;;;;;;;;;;5004214;28;20123;-71
2022/11/04 04:59:01;;;;;;;11.73;6.90;;;;;;;;;;5004412;28;20448;-72
2022/11/04 05:01:27;;;;;;;13.20;7.70;;;;;;;;;;5004175;28;20063;-70
2022/11/04 05:03:53;;;;;;;12.10;7.10;;;;;;;;;;5004131;28;20064;-69
2022/11/04 05:06:18;;;;;;;10.73;7.13;;;;;;;;;;5003997;28;20029;-71
2022/11/04 05:08:44;;;;;;;13.03;7.13;;;;;;;;;;5003904;28;20502;-72
2022/11/04 05:11:09;;;;;;;14.63;7.30;;;;;;;;;;5003997;28;20057;-72
2022/11/04 05:13:35;;;;;;;16.33;7.83;;;;;;;;;;5004345;28;20028;-72
2022/11/04 05:16:05;;;;;;;14.33;8.50;;;;;;;;;;5005102;28;20353;-71
2022/11/04 05:18:30;;;;;;;12.73;7.13;;;;;;;;;;5037641;28;20132;-71
2022/11/04 05:20:57;;;;;;;12.27;7.30;;;;;;;;;;5019972;28;20120;-72
2022/11/04 05:23:23;;;;;;;18.10;8.30;;;;;;;;;;5003762;28;20040;-71
2022/11/04 05:25:48;;;;;;;15.03;8.23;;;;;;;;;;5019889;28;20029;-72
2022/11/04 05:28:14;;;;;;;18.63;8.87;;;;;;;;;;5003501;28;20047;-72
2022/11/04 05:30:40;;;;;;;19.23;9.63;;;;;;;;;;5003282;28;20122;-72
2022/11/04 05:33:06;;;;;;;14.63;8.93;;;;;;;;;;4995851;28;20033;-72
2022/11/04 05:35:32;;;;;;;12.87;8.07;;;;;;;;;;5013434;28;20054;-73
2022/11/04 05:38:00;;;;;;;14.37;8.10;;;;;;;;;;4996854;28;20030;-74
2022/11/04 05:40:25;;;;;;;18.20;8.23;;;;;;;;;;4980394;28;20053;-70
2022/11/04 05:42:51;;;;;;;14.90;7.90;;;;;;;;;;4996469;28;20038;-71
2022/11/04 05:45:16;;;;;;;14.03;8.33;;;;;;;;;;4996586;28;20125;-71
2022/11/04 05:47:42;;;;;;;13.67;8.33;;;;;;;;;;4996501;28;20026;-72
2022/11/04 05:50:09;;;;;;;16.77;8.30;;;;;;;;;;5012879;28;20049;-71
2022/11/04 05:52:35;;;;;;;13.70;8.03;;;;;;;;;;4996675;28;20037;-71
2022/11/04 05:55:00;;;;;;;12.40;7.43;;;;;;;;;;4996576;28;20042;-71
2022/11/04 05:57:28;;;;;;;13.50;7.80;;;;;;;;;;5012600;28;20372;-72
2022/11/04 05:59:54;;;;;;;17.27;8.27;;;;;;;;;;4996170;28;20129;-71
2022/11/04 06:02:20;;;;;;;14.47;7.80;;;;;;;;;;4996144;28;20132;-71
2022/11/04 06:04:45;;;;;;;17.90;7.67;;;;;;;;;;4996137;28;20091;-71
2022/11/04 06:07:12;;;;;;;15.20;7.07;;;;;;;;;;4996309;28;20369;-70
2022/11/04 06:09:37;;;;;;;14.33;7.53;;;;;;;;;;4980145;28;20065;-70
2022/11/04 06:12:06;;;;;;;14.07;8.00;;;;;;;;;;4980404;28;20437;-72
2022/11/04 06:14:33;;;;;;;14.37;7.63;;;;;;;;;;4980551;28;20108;-73
2022/11/04 06:16:59;;;;;;;13.63;8.03;;;;;;;;;;4995987;28;20472;-72
2022/11/04 06:19:25;;;;;;;13.50;8.17;;;;;;;;;;4996227;28;20037;-73
2022/11/04 06:21:51;;;;;;;20.17;8.93;;;;;;;;;;4996028;28;20084;-73
2022/11/04 06:24:16;;;;;;;18.03;9.37;;;;;;;;;;4995839;28;20556;-72
2022/11/04 06:26:42;;;;;;;22.33;8.90;;;;;;;;;;4996044;28;20037;-68
2022/11/04 06:29:08;;;;;;;16.53;8.93;;;;;;;;;;4996454;28;20045;-70
2022/11/04 06:31:34;;;;;;;16.50;8.97;;;;;;;;;;4996167;28;20042;-68
2022/11/04 06:34:00;;;;;;;16.80;8.43;;;;;;;;;;4979429;28;20092;-69
2022/11/04 06:36:26;;;;;;;16.53;8.73;;;;;;;;;;4995700;28;20496;-72
2022/11/04 06:38:54;;;;;;;18.00;9.00;;;;;;;;;;4995644;28;20037;-70
2022/11/04 06:41:19;;;;;;;21.07;8.73;;;;;;;;;;5011609;28;20297;-70
2022/11/04 06:43:45;;;;;;;15.43;8.17;;;;;;;;;;4995688;28;20535;-69
2022/11/04 06:46:29;;;;;;;15.93;8.17;;;;;;;;;;4995520;28;20053;-70
2022/11/04 06:48:55;;;;;;;16.37;8.77;;;;;;;;;;4995350;28;20045;-69
2022/11/04 06:51:21;;;;;;;19.73;8.47;;;;;;;;;;5011870;28;20049;-69
2022/11/04 06:53:47;;;;;;;19.87;8.70;;;;;;;;;;4978836;28;20451;-64
2022/11/04 06:56:12;;;;;;;17.90;8.80;;;;;;;;;;4995405;28;20117;-64
2022/11/04 06:58:38;;;;;;;21.03;8.97;;;;;;;;;;4995692;28;20523;-64
2022/11/04 07:01:03;;;;;;;16.40;7.97;;;;;;;;;;5011828;28;20052;-64
2022/11/04 07:03:29;;;;;;;22.10;8.00;;;;;;;;;;5011671;28;20073;-62
2022/11/04 07:05:54;;;;;;;17.03;8.97;;;;;;;;;;4978995;28;20068;-63
2022/11/04 07:08:20;;;;;;;21.43;8.67;;;;;;;;;;4979180;28;20120;-64
2022/11/04 07:10:46;;;;;;;21.73;9.87;;;;;;;;;;4995340;28;20049;-64
2022/11/04 07:13:11;;;;;;;19.40;8.93;;;;;;;;;;4979102;28;20393;-64
2022/11/04 07:15:40;;;;;;;25.77;11.40;;;;;;;;;;4963197;28;20041;-64
2022/11/04 07:18:05;;;;;;;35.90;10.80;;;;;;;;;;4995525;28;20045;-65
2022/11/04 07:20:32;;;;;;;19.57;8.63;;;;;;;;;;4995210;28;20048;-64
2022/11/04 07:22:58;;;;;;;14.87;8.33;;;;;;;;;;4978731;28;20033;-64
2022/11/04 07:25:23;;;;;;;18.70;8.50;;;;;;;;;;4994811;28;20055;-64
2022/11/04 07:27:49;;;;;;;18.80;8.70;;;;;;;;;;5011374;28;20467;-65
2022/11/04 07:30:14;;;;;;;20.20;8.63;;;;;;;;;;4994269;28;20038;-68
2022/11/04 07:32:40;;;;;;;19.13;8.57;;;;;;;;;;4994893;28;20046;-66
2022/11/04 07:35:06;;;;;;;17.85;9.07;;;;;;;;;;5011191;28;20499;-64
2022/11/04 07:37:31;;;;;;;23.87;10.27;;;;;;;;;;5012186;28;20046;-63
2022/11/04 07:39:58;;;;;;;15.87;7.97;;;;;;;;;;4995000;28;20045;-69
2022/11/04 07:42:24;;;;;;;18.73;8.57;;;;;;;;;;4996702;28;20578;-63
2022/11/04 07:44:53;;;;;;;17.10;8.07;;;;;;;;;;5010723;28;20041;-65
2022/11/04 07:47:19;;;;;;;16.83;7.77;;;;;;;;;;4999360;28;20083;-64
2022/11/04 07:49:44;;;;;;;13.63;7.43;;;;;;;;;;4985913;28;20483;-61
2022/11/04 07:52:10;;;;;;;15.80;7.93;;;;;;;;;;4987846;28;20041;-63
2022/11/04 07:54:36;;;;;;;14.05;7.38;;;;;;;;;;4973149;28;20525;-68
2022/11/04 07:57:02;;;;;;;17.87;9.10;;;;;;;;;;4998215;28;20048;-63
2022/11/04 07:59:27;;;;;;;18.23;8.50;;;;;;;;;;5025628;28;20038;-63
2022/11/04 08:01:53;;;;;;;17.90;7.83;;;;;;;;;;5015526;28;20120;-63
2022/11/04 08:04:18;;;;;;;18.97;8.27;;;;;;;;;;4991431;28;20029;-64
2022/11/04 08:06:44;;;;;;;15.07;7.77;;;;;;;;;;4995373;28;20113;-65
2022/11/04 08:09:09;;;;;;;20.53;8.70;;;;;;;;;;4983357;28;20033;-64
2022/11/04 08:11:35;;;;;;;28.63;8.27;;;;;;;;;;4992760;28;20037;-64
2022/11/04 08:14:04;;;;;;;20.80;8.47;;;;;;;;;;4997927;28;20092;-64
2022/11/04 08:16:29;;;;;;;16.17;7.70;;;;;;;;;;4990875;28;20129;-63
2022/11/04 08:19:00;;;;;;;21.27;8.50;;;;;;;;;;4991039;28;20527;-63
2022/11/04 08:21:26;;;;;;;19.40;9.32;;;;;;;;;;4976343;28;20033;-64
2022/11/04 08:23:52;;;;;;;15.13;9.00;;;;;;;;;;5024201;28;20036;-61
2022/11/04 08:26:18;;;;;;;14.63;7.63;;;;;;;;;;4991123;28;20490;-64
2022/11/04 08:28:46;;;;;;;18.93;8.57;;;;;;;;;;4992308;28;20269;-61
2022/11/04 08:31:16;;;;;;;16.77;8.00;;;;;;;;;;5006839;28;20053;-61
2022/11/04 08:33:42;;;;;;;21.83;7.78;;;;;;;;;;5025044;28;20029;-62
2022/11/04 08:36:28;;;;;;;21.07;7.17;;;;;;;;;;4989483;28;20030;-61
2022/11/04 08:38:54;;;;;;;17.63;7.67;;;;;;;;;;5003973;28;20059;-64
2022/11/04 08:41:22;;;;;;;13.57;7.47;;;;;;;;;;5031793;28;20046;-69
2022/11/04 08:43:48;;;;;;;17.63;7.13;;;;;;;;;;4991695;28;20096;-65
2022/11/04 08:46:13;;;;;;;12.40;6.83;;;;;;;;;;5023313;28;20037;-64
2022/11/04 08:48:40;;;;;;;15.45;6.53;;;;;;;;;;5024368;28;20045;-64
2022/11/04 08:51:09;;;;;;;12.67;7.30;;;;;;;;;;5022433;28;20049;-65
2022/11/04 08:53:35;;;;;;;13.80;7.20;;;;;;;;;;4973337;28;20187;-63
2022/11/04 08:56:07;;;;;;;16.40;6.80;;;;;;;;;;5006874;28;20531;-64
2022/11/04 08:58:33;;;;;;;17.67;7.15;;;;;;;;;;5017294;28;20115;-64
2022/11/04 09:01:02;;;;;;;22.13;6.35;;;;;;;;;;5006537;28;20455;-63
2022/11/04 09:03:28;;;;;;;14.05;6.05;;;;;;;;;;4985782;28;20040;-63
2022/11/04 09:05:56;;;;;;;13.20;5.80;;;;;;;;;;4988766;28;20046;-65
2022/11/04 09:08:21;;;;;;;13.80;6.15;;;;;;;;;;4989174;28;20029;-64
2022/11/04 09:10:47;;;;;;;12.82;5.18;;;;;;;;;;4990457;28;20044;-65
2022/11/04 09:13:14;;;;;;;15.15;5.60;;;;;;;;;;5005076;28;20448;-65
2022/11/04 09:15:40;;;;;;;10.70;4.50;;;;;;;;;;5006310;28;20064;-64
2022/11/04 09:18:06;;;;;;;9.27;4.97;;;;;;;;;;4993711;28;20114;-65
2022/11/04 09:20:32;;;;;;;10.98;4.85;;;;;;;;;;5000675;28;20033;-64
2022/11/04 09:22:58;;;;;;;14.50;4.60;;;;;;;;;;5000654;28;20041;-65
2022/11/04 09:25:23;;;;;;;11.38;5.53;;;;;;;;;;4984502;28;20045;-60
2022/11/04 09:27:49;;;;;;;13.32;5.10;;;;;;;;;;5000864;28;20041;-64
2022/11/04 09:30:14;;;;;;;9.07;5.60;;;;;;;;;;5016730;28;20470;-65
2022/11/04 09:32:41;;;;;;;15.88;6.13;;;;;;;;;;5000680;28;20502;-64
2022/11/04 09:35:06;;;;;;;13.48;5.57;;;;;;;;;;4991797;28;20053;-65
2022/11/04 09:37:32;;;;;;;13.43;6.18;;;;;;;;;;4990050;28;20033;-64
2022/11/04 09:39:57;;;;;;;12.65;6.13;;;;;;;;;;4983185;28;20280;-62
2022/11/04 09:42:30;;;;;;;9.02;5.50;;;;;;;;;;5006054;28;20030;-64
2022/11/04 09:45:00;;;;;;;10.95;5.10;;;;;;;;;;4988367;28;20038;-64
2022/11/04 09:47:26;;;;;;;12.43;6.07;;;;;;;;;;5004780;28;20480;-64
2022/11/04 09:49:53;;;;;;;14.00;5.55;;;;;;;;;;5030797;28;20042;-64
2022/11/04 09:52:31;;;;;;;14.18;6.10;;;;;;;;;;4972558;28;20125;-64
2022/11/04 09:55:05;;;;;;;10.77;5.95;;;;;;;;;;5005156;28;20177;-64
2022/11/04 09:57:31;;;;;;;13.27;5.47;;;;;;;;;;5003213;28;20033;-65
2022/11/04 09:59:58;;;;;;;19.45;5.53;;;;;;;;;;5004601;28;20068;-64
2022/11/04 10:02:42;;;;;;;13.65;5.10;;;;;;;;;;4972091;28;20065;-65
2022/11/04 10:05:26;;;;;;;7.25;5.10;;;;;;;;;;5005360;28;20037;-66
2022/11/04 10:08:00;;;;;;;13.88;5.82;;;;;;;;;;4989212;28;20387;-66
2022/11/04 10:10:28;;;;;;;9.40;5.63;;;;;;;;;;4978553;28;20040;-66
2022/11/04 10:12:55;;;;;;;16.15;5.68;;;;;;;;;;5002382;28;20056;-65
2022/11/04 10:15:27;;;;;;;12.98;5.97;;;;;;;;;;4995829;28;20087;-65
2022/11/04 10:18:31;;;;;;;13.70;5.53;;;;;;;;;;4996074;28;20128;-65
2022/11/04 10:21:07;;;;;;;14.45;5.90;;;;;;;;;;4936571;28;20027;-66
2022/11/04 10:23:33;;;;;;;10.80;5.88;;;;;;;;;;4967650;28;20038;-64
2022/11/04 10:26:07;;;;;;;11.32;5.45;;;;;;;;;;4966190;28;20049;-63
2022/11/04 10:28:37;;;;;;;15.35;5.75;;;;;;;;;;4983697;28;20037;-63
2022/11/04 10:31:04;;;;;;;11.20;5.90;;;;;;;;;;4971686;28;20182;-62
2022/11/04 10:33:29;;;;;;;23.63;6.18;;;;;;;;;;4970734;28;20121;-63
2022/11/04 10:36:00;;;;;;;14.93;6.05;;;;;;;;;;4967568;28;20064;-64
2022/11/04 10:38:37;;;;;;;15.60;6.65;;;;;;;;;;4983062;28;20057;-64
2022/11/04 10:41:11;;;;;;;17.17;6.15;;;;;;;;;;4985699;28;20053;-64
2022/11/04 10:43:37;;;;;;;18.10;8.40;;;;;;;;;;4994900;28;20049;-64
2022/11/04 10:46:25;;;;;;;17.85;7.78;;;;;;;;;;4962221;28;20034;-64
2022/11/04 10:48:58;;;;;;;16.33;6.68;;;;;;;;;;4973843;28;20108;-64
2022/11/04 10:51:24;;;;;;;21.85;8.05;;;;;;;;;;4961376;28;20056;-64
2022/11/04 10:53:53;;;;;;;15.38;7.35;;;;;;;;;;4993681;28;20038;-61
2022/11/04 10:56:34;;;;;;;15.55;6.70;;;;;;;;;;4994040;28;20095;-65
2022/11/04 10:59:04;;;;;;;11.48;6.72;;;;;;;;;;4961870;28;20458;-64
2022/11/04 11:01:31;;;;;;;15.13;6.65;;;;;;;;;;4977606;28;20088;-64
2022/11/04 11:03:57;;;;;;;18.13;6.95;;;;;;;;;;4994175;28;20073;-61
2022/11/04 11:06:25;;;;;;;17.83;7.20;;;;;;;;;;4978297;28;20057;-61
2022/11/04 11:08:53;;;;;;;23.83;8.82;;;;;;;;;;4978095;28;20034;-63
2022/11/04 11:11:34;;;;;;;16.90;7.57;;;;;;;;;;4978124;28;20084;-60
2022/11/04 11:13:59;;;;;;;13.98;7.65;;;;;;;;;;4995353;28;20053;-61
2022/11/04 11:16:25;;;;;;;19.13;8.15;;;;;;;;;;4995466;28;20038;-64
2022/11/04 11:19:10;;;;;;;17.98;7.82;;;;;;;;;;4978817;28;20069;-64
2022/11/04 11:22:02;;;;;;;20.40;6.85;;;;;;;;;;4962017;28;20065;-61
2022/11/04 11:24:32;;;;;;;17.10;7.40;;;;;;;;;;4977750;28;20045;-63
2022/11/04 11:27:10;;;;;;;11.32;7.03;;;;;;;;;;5012374;28;20041;-61
2022/11/04 11:29:39;;;;;;;15.35;7.63;;;;;;;;;;4978699;28;20045;-61
2022/11/04 11:32:06;;;;;;;16.98;7.90;;;;;;;;;;4978610;28;20444;-63
2022/11/04 11:34:33;;;;;;;16.75;7.93;;;;;;;;;;4967870;28;20480;-63
2022/11/04 11:37:02;;;;;;;17.08;7.75;;;;;;;;;;4989931;28;20602;-62
2022/11/04 11:39:29;;;;;;;14.20;7.50;;;;;;;;;;4971766;28;20046;-63
2022/11/04 11:41:55;;;;;;;17.58;8.30;;;;;;;;;;4988078;28;20435;-63
2022/11/04 11:44:31;;;;;;;18.98;8.85;;;;;;;;;;4955819;28;20037;-62
2022/11/04 11:47:01;;;;;;;17.00;7.97;;;;;;;;;;4988796;28;20033;-63
2022/11/04 11:49:29;;;;;;;12.40;7.25;;;;;;;;;;4990022;28;20045;-62
2022/11/04 11:52:14;;;;;;;18.95;7.85;;;;;;;;;;4993468;28;20041;-62
2022/11/04 11:54:43;;;;;;;16.98;8.45;;;;;;;;;;4978932;28;20054;-61
2022/11/04 11:57:29;;;;;;;15.93;7.88;;;;;;;;;;4994963;28;20121;-64
2022/11/04 12:00:06;;;;;;;20.02;8.32;;;;;;;;;;4994311;28;20041;-63
2022/11/04 12:02:56;;;;;;;14.30;7.70;;;;;;;;;;4979790;28;20033;-63
2022/11/04 12:05:38;;;;;;;15.18;7.20;;;;;;;;;;4995064;28;20030;-62
2022/11/04 12:08:08;;;;;;;15.57;8.20;;;;;;;;;;4994869;28;20041;-62
2022/11/04 12:10:36;;;;;;;21.67;9.27;;;;;;;;;;4994787;28;20038;-63
2022/11/04 12:13:17;;;;;;;18.45;8.05;;;;;;;;;;4994889;28;20434;-62
2022/11/04 12:16:02;;;;;;;16.05;8.18;;;;;;;;;;4995024;28;20034;-63
2022/11/04 12:18:28;;;;;;;18.50;8.50;;;;;;;;;;4962567;28;20037;-62
2022/11/04 12:21:12;;;;;;;21.67;9.18;;;;;;;;;;4978656;28;20038;-61
2022/11/04 12:24:00;;;;;;;19.08;9.27;;;;;;;;;;4962791;28;20475;-62
2022/11/04 12:26:32;;;;;;;23.13;8.73;;;;;;;;;;4978337;28;20539;-62
2022/11/04 12:29:13;;;;;;;19.23;8.80;;;;;;;;;;4994769;28;20038;-62
2022/11/04 12:31:38;;;;;;;18.23;8.93;;;;;;;;;;4978405;28;20045;-61
2022/11/04 12:34:10;;;;;;;21.63;9.73;;;;;;;;;;4962291;28;20149;-63
2022/11/04 12:36:42;;;;;;;30.20;10.00;;;;;;;;;;4978552;28;20092;-62
2022/11/04 12:39:14;;;;;;;21.55;9.52;;;;;;;;;;4978649;28;20069;-63
2022/11/04 12:42:00;;;;;;;21.60;9.80;;;;;;;;;;4966054;28;20042;-62
2022/11/04 12:44:36;;;;;;;16.50;9.35;;;;;;;;;;4982142;28;20033;-63
2022/11/04 12:47:22;;;;;;;20.60;10.30;;;;;;;;;;4998305;28;20030;-62
2022/11/04 12:50:07;;;;;;;26.98;10.60;;;;;;;;;;4998548;28;20037;-62
2022/11/04 12:52:38;;;;;;;24.13;10.93;;;;;;;;;;4982013;28;20148;-63
2022/11/04 12:55:23;;;;;;;20.85;10.35;;;;;;;;;;5015233;28;20045;-63
2022/11/04 12:58:07;;;;;;;20.67;10.73;;;;;;;;;;4982202;28;20034;-62
2022/11/04 13:00:34;;;;;;;25.80;11.15;;;;;;;;;;4981798;28;20042;-61
2022/11/04 13:03:03;;;;;;;27.33;10.93;;;;;;;;;;5014301;28;20460;-62
2022/11/04 13:05:31;;;;;;;25.48;10.65;;;;;;;;;;5014715;28;20514;-62
2022/11/04 13:08:12;;;;;;;23.65;10.05;;;;;;;;;;5013988;28;20041;-62
2022/11/04 13:10:38;;;;;;;19.50;9.88;;;;;;;;;;4981627;28;20045;-64
2022/11/04 13:13:04;;;;;;;22.23;10.48;;;;;;;;;;5014069;28;20034;-62
2022/11/04 13:15:42;;;;;;;25.30;10.27;;;;;;;;;;5013884;28;20103;-63
2022/11/04 13:18:12;;;;;;;27.15;10.43;;;;;;;;;;4981469;28;20034;-63
2022/11/04 13:20:43;;;;;;;19.63;10.63;;;;;;;;;;4997667;28;20460;-63
2022/11/04 13:23:16;;;;;;;25.25;10.63;;;;;;;;;;4981213;28;20049;-63
2022/11/04 13:25:46;;;;;;;27.75;11.52;;;;;;;;;;4997539;28;20037;-62
2022/11/04 13:28:14;;;;;;;27.20;11.13;;;;;;;;;;4997756;28;20080;-61
2022/11/04 13:30:46;;;;;;;21.95;10.07;;;;;;;;;;4981277;28;20046;-61
2022/11/04 13:33:24;;;;;;;17.60;9.73;;;;;;;;;;5013823;28;20042;-61
2022/11/04 13:35:52;;;;;;;19.92;10.00;;;;;;;;;;4965162;28;20061;-63
2022/11/04 13:38:24;;;;;;;24.75;10.90;;;;;;;;;;4981365;28;20045;-61
2022/11/04 13:40:49;;;;;;;26.38;11.15;;;;;;;;;;5013872;28;20040;-60
2022/11/04 13:45:59;;;;;;;18.38;9.10;;;;;;;;;;4997209;28;20045;-62
2022/11/04 13:48:27;;;;;;;26.80;13.20;;;;;;;;;;4965157;28;20096;-63
2022/11/04 13:50:59;;;;;;;17.40;9.60;;;;;;;;;;5013308;28;20042;-61
2022/11/04 13:53:39;;;;;;;16.30;9.75;;;;;;;;;;4980727;28;20112;-63
2022/11/04 13:56:05;;;;;;;23.52;8.70;;;;;;;;;;5014336;28;20084;-63
2022/11/04 13:58:32;;;;;;;23.67;8.88;;;;;;;;;;4997027;28;20063;-61
2022/11/04 14:01:16;;;;;;;17.77;8.70;;;;;;;;;;4996634;28;20487;-62
2022/11/04 14:04:01;;;;;;;17.90;8.65;;;;;;;;;;4996876;28;20045;-62
2022/11/04 14:06:47;;;;;;;20.45;8.75;;;;;;;;;;5013230;28;20046;-63
2022/11/04 14:09:29;;;;;;;15.70;7.85;;;;;;;;;;4986355;28;20052;-62
2022/11/04 14:12:16;;;;;;;20.45;8.75;;;;;;;;;;4996630;28;20037;-61
2022/11/04 14:14:52;;;;;;;29.75;9.57;;;;;;;;;;5029617;28;20037;-62
2022/11/04 14:17:32;;;;;;;28.52;9.85;;;;;;;;;;5013680;28;20045;-62
2022/11/04 14:19:58;;;;;;;19.98;8.95;;;;;;;;;;5013682;28;20081;-63
2022/11/04 14:22:28;;;;;;;17.45;9.10;;;;;;;;;;4964361;28;20073;-62
2022/11/04 14:24:55;;;;;;;22.52;9.65;;;;;;;;;;4980343;28;20034;-62
2022/11/04 14:27:34;;;;;;;17.58;9.55;;;;;;;;;;5013110;28;20045;-62
2022/11/04 14:30:00;;;;;;;22.42;9.65;;;;;;;;;;5013502;28;20117;-64
2022/11/04 14:32:28;;;;;;;23.63;9.73;;;;;;;;;;4980105;28;20136;-63
2022/11/04 14:34:59;;;;;;;18.52;9.18;;;;;;;;;;5012741;28;20057;-62
2022/11/04 14:37:30;;;;;;;24.60;9.57;;;;;;;;;;5012607;28;20045;-61
2022/11/04 14:39:58;;;;;;;23.70;8.77;;;;;;;;;;4996286;28;20486;-62
2022/11/04 14:42:42;;;;;;;18.52;8.77;;;;;;;;;;4996344;28;20472;-59
2022/11/04 14:45:11;;;;;;;26.42;8.93;;;;;;;;;;4979530;28;20473;-61
2022/11/04 14:47:37;;;;;;;25.23;9.85;;;;;;;;;;4979789;28;20053;-61
2022/11/04 14:50:04;;;;;;;20.15;9.40;;;;;;;;;;4995823;28;20057;-63
2022/11/04 14:52:56;;;;;;;23.35;9.27;;;;;;;;;;4995812;28;20041;-61
2022/11/04 14:55:24;;;;;;;18.77;8.52;;;;;;;;;;4992219;28;20045;-62
2022/11/04 14:57:51;;;;;;;18.52;8.52;;;;;;;;;;4995764;28;20053;-62
2022/11/04 15:00:36;;;;;;;17.45;9.02;;;;;;;;;;4979711;28;20036;-61
2022/11/04 15:03:08;;;;;;;14.40;8.65;;;;;;;;;;5010744;28;20372;-62
2022/11/04 15:05:35;;;;;;;19.42;9.25;;;;;;;;;;4996293;28;20132;-64
2022/11/04 15:08:02;;;;;;;19.77;9.77;;;;;;;;;;4995841;28;20099;-61
2022/11/04 15:10:28;;;;;;;20.98;8.63;;;;;;;;;;4963156;28;20449;-62
2022/11/04 15:12:59;;;;;;;19.13;9.20;;;;;;;;;;4995894;28;20136;-61
2022/11/04 15:15:33;;;;;;;20.13;9.45;;;;;;;;;;4979757;28;20041;-61
2022/11/04 15:18:07;;;;;;;19.58;9.65;;;;;;;;;;4979233;28;20049;-61
2022/11/04 15:20:34;;;;;;;26.70;11.85;;;;;;;;;;4979254;28;20120;-61